Manitou Springs, Colorado
Current Conditions -  °F | °C
As of 2:56 PM on Friday 24 Oct 2014 (Local Time) from KCWN Reporting Station
Clear Clear  
Wind Chill: 73°   Ceiling: Unl
Heat Index: 73°   Visibility: 10mi
Dew Point: 15°   Wind: 21mph
Humidity: 11%   Direction: 140°SE
Pressure: 30.23"   Gusts: 25mph
Location:  38.86°N, 104.92°W
Report Text: KCWN 242056Z AUTO 14018G22KT 10SM CLR 23/M09 A3023 RMK AO2 SLP158 T02271092 56012
Loading
Personal Weather Stations






























Interactive Weather Map
Tropical Storm Tracking
New forecast layout! Learn more

10-Day Weather Forecast

Advertisements
Track Severe Weather on mobile